createdAt,value
2022-08-17T00:00:42.925Z,85.52
2022-08-17T00:04:10.691Z,84.92
2022-08-17T00:07:35.205Z,84.37
2022-08-17T00:10:59.242Z,82.98
2022-08-17T00:14:24.190Z,82.62
2022-08-17T00:17:47.263Z,82.82
2022-08-17T00:21:11.155Z,83.57
2022-08-17T00:24:36.267Z,83.30
2022-08-17T00:28:01.213Z,83.66
2022-08-17T00:31:24.230Z,83.18
2022-08-17T00:34:48.187Z,83.60
2022-08-17T00:38:13.331Z,83.08
2022-08-17T00:41:40.785Z,83.04
2022-08-17T00:45:06.222Z,82.86
2022-08-17T00:48:30.648Z,82.57
2022-08-17T00:52:23.337Z,82.46
2022-08-17T00:55:46.156Z,81.73
2022-08-17T00:59:10.243Z,82.91
2022-08-17T01:02:34.414Z,82.33
2022-08-17T01:06:08.272Z,82.70
2022-08-17T01:09:33.241Z,83.27
2022-08-17T01:12:57.260Z,83.25
2022-08-17T01:16:31.233Z,84.28
2022-08-17T01:19:56.328Z,86.08
2022-08-17T01:23:20.711Z,85.50
2022-08-17T01:26:44.271Z,85.92
2022-08-17T01:30:57.921Z,86.70
2022-08-17T01:33:50.427Z,87.59
2022-08-17T01:37:13.314Z,87.61
2022-08-17T01:40:38.195Z,88.02
2022-08-17T01:44:01.272Z,87.80
2022-08-17T01:47:25.238Z,86.55
2022-08-17T01:50:49.281Z,84.94
2022-08-17T01:54:06.667Z,84.68
2022-08-17T01:57:25.250Z,84.63
2022-08-17T02:00:59.789Z,84.96
2022-08-17T02:04:24.239Z,84.07
2022-08-17T02:07:59.415Z,84.19
2022-08-17T02:11:26.242Z,84.47
2022-08-17T02:14:49.267Z,83.90
2022-08-17T02:18:14.271Z,83.68
2022-08-17T02:21:47.268Z,83.91
2022-08-17T02:25:11.257Z,84.35
2022-08-17T02:28:39.242Z,84.06
2022-08-17T02:32:03.229Z,84.55
2022-08-17T02:35:27.304Z,85.20
2022-08-17T02:38:51.207Z,85.29
2022-08-17T02:42:18.264Z,86.11
2022-08-17T02:45:41.266Z,86.63
2022-08-17T02:49:04.272Z,87.63
2022-08-17T02:52:43.409Z,87.64
2022-08-17T02:56:08.261Z,88.00
2022-08-17T02:59:32.208Z,88.16
2022-08-17T03:02:56.255Z,88.53
2022-08-17T03:06:19.264Z,88.27
2022-08-17T03:09:42.318Z,88.67
2022-08-17T03:13:05.284Z,89.00
2022-08-17T03:16:29.256Z,88.93
2022-08-17T03:19:52.299Z,88.02
2022-08-17T03:23:16.277Z,88.07
2022-08-17T03:26:41.323Z,87.60
2022-08-17T03:30:04.278Z,87.51
2022-08-17T03:33:28.324Z,86.89
2022-08-17T03:36:51.248Z,86.30
2022-08-17T03:40:16.281Z,86.38
2022-08-17T03:44:00.318Z,86.07
2022-08-17T03:47:41.288Z,86.39
2022-08-17T03:51:24.318Z,86.70
2022-08-17T03:55:05.237Z,86.08
2022-08-17T03:58:28.312Z,86.29
2022-08-17T04:01:52.357Z,86.24
2022-08-17T04:05:17.307Z,86.45
2022-08-17T04:08:41.317Z,86.80
2022-08-17T04:12:05.397Z,86.77
2022-08-17T04:15:29.289Z,86.64
2022-08-17T04:18:52.317Z,86.98
2022-08-17T04:22:32.204Z,86.06
2022-08-17T04:26:02.340Z,86.34
2022-08-17T04:29:25.298Z,86.04
2022-08-17T04:33:07.134Z,86.31
2022-08-17T04:36:30.312Z,86.82
2022-08-17T04:40:13.406Z,86.59
2022-08-17T04:43:37.261Z,85.74
2022-08-17T04:46:55.361Z,85.74
2022-08-17T04:50:18.279Z,86.07
2022-08-17T04:53:42.309Z,86.10
2022-08-17T04:57:06.246Z,85.82
2022-08-17T05:00:29.320Z,86.29
2022-08-17T05:03:52.288Z,86.70
2022-08-17T05:07:18.617Z,87.30
2022-08-17T05:10:46.321Z,87.28
2022-08-17T05:14:10.396Z,88.40
2022-08-17T05:17:34.374Z,88.69
2022-08-17T05:20:57.340Z,89.50
2022-08-17T05:24:40.795Z,89.69
2022-08-17T05:28:03.322Z,90.09
2022-08-17T05:31:25.308Z,89.96
2022-08-17T05:34:48.342Z,90.45
2022-08-17T05:38:12.414Z,90.92
2022-08-17T05:41:36.494Z,91.33
2022-08-17T05:44:59.341Z,92.10
2022-08-17T05:48:22.278Z,92.26
2022-08-17T05:52:05.513Z,93.18
2022-08-17T05:55:34.335Z,93.06
2022-08-17T05:58:57.337Z,93.41
2022-08-17T06:02:24.979Z,93.40
2022-08-17T06:06:00.399Z,93.71
2022-08-17T06:09:33.019Z,94.95
2022-08-17T06:13:03.343Z,95.34
2022-08-17T06:16:35.334Z,95.19
2022-08-17T06:20:24.337Z,95.27
2022-08-17T06:23:52.381Z,94.92
2022-08-17T06:27:23.359Z,94.36
2022-08-17T06:30:59.337Z,94.20
2022-08-17T06:34:25.297Z,94.44
2022-08-17T06:38:07.420Z,93.81
2022-08-17T06:41:35.718Z,94.36
2022-08-17T06:44:59.386Z,93.93
2022-08-17T06:48:32.519Z,94.06
2022-08-17T06:52:42.242Z,94.42
2022-08-17T06:56:05.405Z,94.40
2022-08-17T06:59:47.163Z,93.79
2022-08-17T07:03:14.385Z,93.50
2022-08-17T07:06:39.368Z,93.69
2022-08-17T07:10:02.424Z,93.47
2022-08-17T07:13:44.388Z,94.10
2022-08-17T07:17:16.365Z,94.21
2022-08-17T07:20:41.347Z,93.88
2022-08-17T07:24:11.392Z,94.14
2022-08-17T07:27:59.374Z,94.42
2022-08-17T07:31:25.377Z,94.34
2022-08-17T07:34:57.360Z,93.87
2022-08-17T07:38:25.813Z,93.75
2022-08-17T07:41:58.734Z,93.93
2022-08-17T07:45:42.382Z,93.68
2022-08-17T07:49:16.407Z,93.59
2022-08-17T07:52:51.408Z,94.58
2022-08-17T07:56:16.388Z,95.14
2022-08-17T07:59:43.189Z,95.14
2022-08-17T08:03:15.417Z,96.60
2022-08-17T08:06:40.375Z,96.72
2022-08-17T08:10:21.443Z,97.34
2022-08-17T08:13:48.358Z,97.15
2022-08-17T08:17:16.388Z,97.80
2022-08-17T08:20:58.396Z,97.80
2022-08-17T08:24:24.430Z,98.06
2022-08-17T08:28:16.359Z,98.29
2022-08-17T08:31:57.376Z,98.52
2022-08-17T08:35:21.446Z,98.89
2022-08-17T08:38:55.422Z,98.81
2022-08-17T08:42:24.400Z,98.90
2022-08-17T08:45:50.422Z,98.95
2022-08-17T08:49:45.587Z,98.98
2022-08-17T08:53:22.458Z,98.96
2022-08-17T08:57:21.540Z,98.95
2022-08-17T09:00:36.490Z,98.20
2022-08-17T09:04:21.785Z,98.84
2022-08-17T09:07:45.540Z,99.02
2022-08-17T09:11:21.390Z,98.70
2022-08-17T09:14:55.488Z,98.65
2022-08-17T09:19:02.891Z,99.38
2022-08-17T09:22:39.428Z,98.98
2022-08-17T09:26:04.389Z,99.04
2022-08-17T09:29:32.460Z,99.06
2022-08-17T09:32:57.483Z,99.01
2022-08-17T09:36:26.461Z,98.72
2022-08-17T09:40:16.607Z,98.87
2022-08-17T09:43:39.449Z,98.92
2022-08-17T09:47:11.461Z,98.80
2022-08-17T09:51:04.034Z,98.88
2022-08-17T09:54:37.942Z,98.94
2022-08-17T09:58:02.424Z,99.20
2022-08-17T10:02:00.455Z,98.93
2022-08-17T10:05:17.113Z,98.79
2022-08-17T10:08:52.490Z,98.07
2022-08-17T10:12:30.257Z,97.97
2022-08-17T10:16:09.467Z,98.33
2022-08-17T10:19:50.447Z,98.56
2022-08-17T10:23:46.448Z,98.36
2022-08-17T10:27:09.458Z,98.70
2022-08-17T10:30:37.491Z,98.27
2022-08-17T10:34:12.425Z,98.21
2022-08-17T10:37:50.615Z,98.02
2022-08-17T10:41:13.507Z,97.89
2022-08-17T10:44:50.398Z,97.68
2022-08-17T10:48:14.477Z,97.50
2022-08-17T10:51:51.464Z,97.42
2022-08-17T10:55:22.493Z,96.95
2022-08-17T10:58:46.408Z,97.18
2022-08-17T11:02:10.646Z,96.99
2022-08-17T11:06:02.994Z,96.65
2022-08-17T11:09:35.518Z,96.67
2022-08-17T11:13:07.432Z,96.85
2022-08-17T11:16:40.514Z,96.74
2022-08-17T11:20:09.472Z,96.94
2022-08-17T11:23:50.438Z,97.52
2022-08-17T11:27:16.480Z,98.35
2022-08-17T11:31:00.423Z,98.46
2022-08-17T11:34:34.475Z,98.49
2022-08-17T11:38:09.704Z,98.17
2022-08-17T11:41:47.496Z,98.29
2022-08-17T11:45:19.355Z,98.57
2022-08-17T11:49:25.558Z,98.67
2022-08-17T11:52:54.463Z,98.47
2022-08-17T11:56:23.505Z,98.66
2022-08-17T11:59:52.422Z,98.41
2022-08-17T12:03:34.567Z,97.37
2022-08-17T12:07:02.384Z,97.27
2022-08-17T12:10:20.549Z,97.29
2022-08-17T12:13:44.461Z,97.41
2022-08-17T12:17:25.900Z,96.83
2022-08-17T12:21:00.493Z,96.49
2022-08-17T12:24:27.474Z,96.70
2022-08-17T12:28:05.153Z,96.33
2022-08-17T12:31:32.475Z,97.04
2022-08-17T12:34:56.451Z,96.91
2022-08-17T12:38:28.166Z,96.72
2022-08-17T12:42:02.355Z,96.68
2022-08-17T12:45:37.523Z,96.12
2022-08-17T12:49:00.462Z,96.50
2022-08-17T12:52:40.529Z,96.60
2022-08-17T12:56:04.489Z,95.98
2022-08-17T12:59:29.793Z,96.20
2022-08-17T13:03:03.488Z,95.88
2022-08-17T13:06:28.486Z,95.49
2022-08-17T13:09:45.837Z,95.84
2022-08-17T13:13:13.557Z,96.60
2022-08-17T13:16:38.500Z,96.80
2022-08-17T13:20:02.520Z,97.53
2022-08-17T13:23:25.511Z,97.41
2022-08-17T13:26:50.503Z,97.71
2022-08-17T13:30:15.520Z,96.98
2022-08-17T13:33:44.650Z,97.10
2022-08-17T13:37:35.448Z,97.29
2022-08-17T13:41:07.572Z,96.85
2022-08-17T13:44:51.477Z,97.49
2022-08-17T13:48:23.550Z,96.92
2022-08-17T13:52:06.540Z,96.79
2022-08-17T13:55:34.552Z,97.08
2022-08-17T13:59:08.489Z,96.93
2022-08-17T14:02:32.506Z,96.09
2022-08-17T14:05:55.517Z,96.47
2022-08-17T14:09:18.533Z,96.23
2022-08-17T14:12:52.666Z,96.15
2022-08-17T14:16:15.540Z,96.07
2022-08-17T14:19:40.561Z,95.38
2022-08-17T14:23:06.496Z,95.67
2022-08-17T14:26:29.484Z,95.21
2022-08-17T14:29:53.514Z,95.81
2022-08-17T14:33:16.534Z,96.08
2022-08-17T14:36:39.534Z,95.97
2022-08-17T14:40:15.620Z,96.08
2022-08-17T14:43:38.571Z,96.50
2022-08-17T14:47:01.508Z,96.88
2022-08-17T14:50:27.571Z,97.27
2022-08-17T14:53:51.551Z,97.79
2022-08-17T14:57:25.875Z,97.01
2022-08-17T15:01:00.664Z,97.33
2022-08-17T15:04:25.548Z,97.40
2022-08-17T15:07:49.854Z,97.43
2022-08-17T15:11:14.455Z,97.74
2022-08-17T15:14:37.562Z,97.30
2022-08-17T15:18:02.798Z,97.49
2022-08-17T15:21:26.660Z,97.81
2022-08-17T15:24:49.492Z,97.68
2022-08-17T15:28:12.573Z,97.55
2022-08-17T15:31:37.529Z,97.57
2022-08-17T15:35:00.567Z,97.75
2022-08-17T15:38:24.576Z,98.33
2022-08-17T15:41:47.751Z,98.30
2022-08-17T15:45:24.586Z,98.11
2022-08-17T15:48:50.513Z,98.50
2022-08-17T15:52:14.560Z,99.05
2022-08-17T15:55:37.522Z,98.83
2022-08-17T15:59:03.608Z,98.41
2022-08-17T16:03:45.452Z,98.38
2022-08-17T16:06:28.547Z,98.47
2022-08-17T16:09:51.565Z,98.45
2022-08-17T16:13:17.292Z,98.84
2022-08-17T16:16:34.294Z,99.16
2022-08-17T16:19:51.590Z,99.41
2022-08-17T16:23:19.909Z,99.37
2022-08-17T16:26:44.605Z,99.42
2022-08-17T16:30:09.801Z,98.87
2022-08-17T16:33:35.557Z,98.83
2022-08-17T16:36:58.535Z,98.68
2022-08-17T16:40:22.575Z,98.14
2022-08-17T16:43:45.579Z,98.17
2022-08-17T16:47:09.577Z,98.57
2022-08-17T16:50:35.570Z,98.71
2022-08-17T16:53:59.655Z,98.94
2022-08-17T16:57:23.565Z,98.63
2022-08-17T17:00:47.570Z,99.23
2022-08-17T17:04:12.602Z,98.78
2022-08-17T17:07:36.591Z,98.83
2022-08-17T17:11:04.282Z,99.20
2022-08-17T17:14:36.371Z,99.73
2022-08-17T17:18:04.253Z,100.00
2022-08-17T17:21:31.298Z,99.87
2022-08-17T17:24:54.362Z,100.00
2022-08-17T17:28:40.358Z,100.00
2022-08-17T17:32:28.310Z,100.00
2022-08-17T17:36:15.297Z,100.00
2022-08-17T17:39:41.427Z,100.00
2022-08-17T17:43:34.740Z,100.00
2022-08-17T17:46:53.324Z,100.00
2022-08-17T17:50:17.416Z,100.00
2022-08-17T17:54:06.307Z,100.00
2022-08-17T17:57:36.351Z,100.00
2022-08-17T18:00:59.345Z,100.00
2022-08-17T18:04:22.380Z,100.00
2022-08-17T18:07:49.472Z,100.00
2022-08-17T18:11:24.183Z,100.00
2022-08-17T18:14:49.287Z,100.00
2022-08-17T18:18:28.342Z,100.00
2022-08-17T18:21:53.302Z,100.00
2022-08-17T18:25:16.371Z,100.00
2022-08-17T18:28:42.360Z,100.00
2022-08-17T18:32:29.367Z,100.00
2022-08-17T18:35:58.482Z,100.00
2022-08-17T18:39:54.538Z,100.00
2022-08-17T18:43:19.324Z,100.00
2022-08-17T18:46:48.350Z,100.00
2022-08-17T18:50:34.359Z,100.00
2022-08-17T18:53:58.374Z,100.00
2022-08-17T18:57:22.368Z,100.00
2022-08-17T19:00:46.334Z,100.00
2022-08-17T19:04:09.358Z,100.00
2022-08-17T19:07:32.374Z,100.00
2022-08-17T19:10:55.378Z,100.00
2022-08-17T19:14:18.360Z,100.00
2022-08-17T19:17:50.485Z,100.00
2022-08-17T19:21:34.370Z,100.00
2022-08-17T19:25:02.623Z,100.00
2022-08-17T19:28:34.405Z,100.00
2022-08-17T19:31:58.397Z,100.00
2022-08-17T19:35:24.418Z,100.00
2022-08-17T19:39:06.343Z,100.00
2022-08-17T19:42:36.418Z,100.00
2022-08-17T19:46:35.623Z,100.00
2022-08-17T19:50:19.405Z,100.00
2022-08-17T19:54:17.389Z,100.00
2022-08-17T19:57:58.375Z,100.00
2022-08-17T20:01:22.429Z,100.00
2022-08-17T20:04:56.455Z,100.00
2022-08-17T20:08:36.345Z,100.00
2022-08-17T20:12:02.403Z,100.00
2022-08-17T20:15:28.468Z,100.00
2022-08-17T20:18:57.339Z,100.00
2022-08-17T20:22:51.992Z,100.00
2022-08-17T20:26:31.391Z,100.00
2022-08-17T20:30:26.420Z,100.00
2022-08-17T20:33:50.344Z,100.00
2022-08-17T20:37:14.437Z,100.00
2022-08-17T20:40:39.424Z,100.00
2022-08-17T20:44:12.487Z,100.00
2022-08-17T20:47:37.399Z,100.00
2022-08-17T20:51:00.366Z,100.00
2022-08-17T20:54:32.401Z,100.00
2022-08-17T20:57:56.431Z,100.00
2022-08-17T21:01:32.415Z,100.00
2022-08-17T21:05:02.535Z,100.00
2022-08-17T21:08:31.364Z,100.00
2022-08-17T21:12:04.435Z,100.00
2022-08-17T21:15:49.419Z,100.00
2022-08-17T21:19:37.552Z,100.00
2022-08-17T21:23:19.419Z,100.00
2022-08-17T21:26:50.756Z,100.00
2022-08-17T21:30:20.397Z,100.00
2022-08-17T21:33:45.412Z,100.00
2022-08-17T21:37:10.360Z,100.00
2022-08-17T21:40:37.412Z,99.95
2022-08-17T21:44:02.448Z,99.47
2022-08-17T21:47:28.393Z,99.87
2022-08-17T21:50:51.434Z,99.60
2022-08-17T21:54:15.443Z,99.96
2022-08-17T21:57:40.514Z,99.76
2022-08-17T22:01:27.485Z,99.36
2022-08-17T22:04:51.410Z,99.35
2022-08-17T22:08:20.439Z,98.52
2022-08-17T22:11:42.373Z,98.55
2022-08-17T22:15:14.401Z,98.24
2022-08-17T22:18:40.428Z,97.58
2022-08-17T22:22:04.408Z,97.97
2022-08-17T22:25:21.023Z,98.15
2022-08-17T22:29:04.447Z,97.63
2022-08-17T22:32:26.486Z,97.88
2022-08-17T22:35:56.400Z,97.68
2022-08-17T22:39:22.468Z,97.66
2022-08-17T22:42:45.455Z,97.98
2022-08-17T22:46:10.435Z,97.41
2022-08-17T22:49:53.342Z,97.77
2022-08-17T22:53:37.420Z,98.06
2022-08-17T22:57:21.466Z,98.30
2022-08-17T23:00:50.477Z,97.95
2022-08-17T23:04:14.422Z,98.40
2022-08-17T23:07:37.485Z,98.42
2022-08-17T23:11:00.439Z,98.34
2022-08-17T23:14:24.470Z,98.28
2022-08-17T23:17:49.500Z,98.03
2022-08-17T23:21:13.532Z,97.67
2022-08-17T23:24:49.402Z,97.52
2022-08-17T23:28:14.505Z,98.00
2022-08-17T23:31:40.449Z,97.81
2022-08-17T23:35:07.470Z,98.15
2022-08-17T23:38:35.401Z,97.97
2022-08-17T23:42:01.587Z,98.86
2022-08-17T23:45:24.422Z,98.34
2022-08-17T23:48:49.469Z,99.94
2022-08-17T23:52:15.322Z,99.62
2022-08-17T23:55:48.438Z,99.40
2022-08-17T23:59:35.511Z,99.65
